Main page
METAR-TAF:

METAR-TAF

Airports :

Nador International Airport

Nador, Morocco

latitude: 34-59-20N, longitude: 003-01-42W, elevation: 175 m

Current weather observation

The report was made 10 minutes ago, at 10:00 UTC
Wind 5 kt from the Northeast, varying between North/Northwest and East
Temperature 25°C
Humidity 61%
Pressure 1016 hPa
Visibility: 7000 m
Scattered clouds at a height of 2300 ft
Scattered clouds at a height of 2600 ft

METAR: GMMW 231000Z 05005KT 340V100 7000 SCT023 SCT026 25/17 Q1016 NOSIG

Time: 11:10 (10:10 UTC)

Forecast

The report was made 5 hours and 10 minutes ago, at 05:00 UTC
Forecast valid from 23 at 06 UTC to 24 at 12 UTC
Wind 2 kt from variable directions
Visibility: 7000 m
Few clouds at a height of 2300 ft
Probability 40%
from 23 at 06 UTC to 23 at 08 UTC
Visibility: 3000 m
Broken clouds at a height of 1300 ft
mist

TAF: GMMW 230500Z 2306/2412 VRB02KT 7000 FEW023 PROB40 2306/2308 3000 BR BKN013

Weather observations and forecasts of more than 4000 airports (METAR and TAF reports).

The available stations are represented by yellow and red dots on the map.

Hover mouse over dot to see the name of the station.

Then click to see weather observations and forecasts.

To change the map : click on the green buttons with a black cross to zoom in, on the green button with a dash to zoom out, or on the green arrows for adjacent maps.


METAR-TAF: